createdAt,value
2023-04-10T00:04:14.690Z,97.60
2023-04-10T00:09:16.601Z,95.20
2023-04-10T00:14:23.114Z,97.16
2023-04-10T00:19:24.848Z,97.36
2023-04-10T00:24:26.780Z,96.56
2023-04-10T00:29:28.480Z,97.23
2023-04-10T00:34:30.462Z,99.29
2023-04-10T00:39:32.203Z,99.87
2023-04-10T00:44:37.338Z,98.46
2023-04-10T00:49:39.029Z,97.50
2023-04-10T00:54:40.939Z,99.95
2023-04-10T00:59:42.740Z,98.04
2023-04-10T01:04:44.952Z,98.48
2023-04-10T01:10:19.182Z,99.41
2023-04-10T01:15:23.773Z,100.00
2023-04-10T01:20:30.004Z,100.00
2023-04-10T01:25:56.555Z,100.00
2023-04-10T01:31:01.383Z,100.00
2023-04-10T01:36:06.371Z,100.00
2023-04-10T01:41:08.451Z,100.00
2023-04-10T01:46:12.592Z,100.00
2023-04-10T01:51:16.158Z,99.01
2023-04-10T01:56:18.093Z,99.21
2023-04-10T02:01:29.857Z,100.00
2023-04-10T02:06:44.957Z,100.00
2023-04-10T02:11:58.793Z,100.00
2023-04-10T02:17:04.220Z,100.00
2023-04-10T02:22:06.301Z,100.00
2023-04-10T02:27:08.411Z,100.00
2023-04-10T02:32:10.739Z,100.00
2023-04-10T02:37:13.919Z,100.00
2023-04-10T02:42:16.154Z,100.00
2023-04-10T02:47:18.801Z,100.00
2023-04-10T02:52:22.187Z,100.00
2023-04-10T02:57:23.890Z,100.00
2023-04-10T03:02:26.577Z,100.00
2023-04-10T03:07:30.255Z,100.00
2023-04-10T03:12:31.949Z,100.00
2023-04-10T03:17:33.885Z,100.00
2023-04-10T03:22:36.552Z,100.00
2023-04-10T03:27:39.064Z,100.00
2023-04-10T03:32:43.088Z,100.00
2023-04-10T03:37:44.960Z,100.00
2023-04-10T03:42:46.597Z,100.00
2023-04-10T03:47:49.188Z,100.00
2023-04-10T03:52:52.290Z,100.00
2023-04-10T03:57:56.463Z,100.00
2023-04-10T04:03:03.228Z,100.00
2023-04-10T04:08:30.176Z,100.00
2023-04-10T04:13:39.670Z,100.00
2023-04-10T04:18:45.494Z,100.00
2023-04-10T04:24:02.015Z,100.00
2023-04-10T04:29:22.598Z,100.00
2023-04-10T04:34:38.108Z,100.00
2023-04-10T04:40:00.201Z,100.00
2023-04-10T04:45:21.826Z,100.00
2023-04-10T04:50:45.798Z,100.00
2023-04-10T04:55:51.430Z,100.00
2023-04-10T05:01:31.785Z,100.00
2023-04-10T05:06:52.094Z,100.00
2023-04-10T05:12:25.052Z,100.00
2023-04-10T05:17:35.526Z,100.00
2023-04-10T05:22:53.097Z,100.00
2023-04-10T05:28:09.876Z,100.00
2023-04-10T05:33:30.028Z,100.00
2023-04-10T05:38:42.979Z,100.00
2023-04-10T05:44:09.509Z,100.00
2023-04-10T05:49:37.395Z,100.00
2023-04-10T05:54:57.408Z,100.00
2023-04-10T06:00:08.389Z,100.00
2023-04-10T06:05:16.018Z,100.00
2023-04-10T06:10:18.368Z,93.39
2023-04-10T06:15:20.569Z,87.99
2023-04-10T06:20:22.798Z,81.73
2023-04-10T06:25:25.694Z,77.33
2023-04-10T06:30:27.460Z,75.76
2023-04-10T06:35:29.369Z,74.92
2023-04-10T06:40:31.721Z,72.54
2023-04-10T06:45:33.388Z,74.37
2023-04-10T06:50:35.200Z,71.97
2023-04-10T06:55:37.593Z,73.17
2023-04-10T07:00:39.476Z,74.12
2023-04-10T07:05:42.333Z,75.49
2023-04-10T07:10:44.360Z,72.86
2023-04-10T07:15:46.129Z,73.29
2023-04-10T07:20:48.586Z,70.92
2023-04-10T07:25:52.173Z,72.08
2023-04-10T07:30:53.952Z,72.03
2023-04-10T07:35:55.623Z,68.16
2023-04-10T07:40:58.461Z,65.21
2023-04-10T07:46:00.291Z,65.65
2023-04-10T07:51:02.703Z,69.86
2023-04-10T07:56:04.989Z,67.60
2023-04-10T08:01:06.985Z,66.34
2023-04-10T08:06:10.325Z,63.62
2023-04-10T08:11:27.711Z,60.91
2023-04-10T08:16:31.308Z,59.97
2023-04-10T08:21:33.161Z,57.85
2023-04-10T08:26:35.090Z,57.73
2023-04-10T08:31:37.046Z,57.26
2023-04-10T08:36:38.988Z,54.82
2023-04-10T08:41:41.430Z,55.63
2023-04-10T08:46:44.615Z,55.24
2023-04-10T08:51:56.905Z,54.81
2023-04-10T08:57:00.965Z,56.24
2023-04-10T09:02:03.564Z,55.80
2023-04-10T09:07:05.675Z,53.87
2023-04-10T09:12:07.539Z,52.22
2023-04-10T09:17:18.028Z,49.72
2023-04-10T09:22:31.515Z,47.81
2023-04-10T09:27:38.546Z,48.65
2023-04-10T09:32:46.769Z,46.69
2023-04-10T09:37:48.686Z,47.41
2023-04-10T09:42:50.907Z,45.50
2023-04-10T09:48:04.077Z,44.09
2023-04-10T09:53:05.868Z,44.33
2023-04-10T09:58:08.227Z,43.71
2023-04-10T10:03:14.885Z,42.06
2023-04-10T10:08:17.387Z,41.86
2023-04-10T10:13:26.885Z,43.27
2023-04-10T10:18:50.854Z,44.09
2023-04-10T10:23:55.106Z,41.89
2023-04-10T10:28:58.950Z,43.77
2023-04-10T10:34:09.330Z,44.19
2023-04-10T10:39:33.239Z,42.67
2023-04-10T10:44:57.639Z,42.76
2023-04-10T10:50:02.534Z,41.55
2023-04-10T10:55:25.746Z,42.03
2023-04-10T11:00:50.355Z,41.41
2023-04-10T11:05:54.309Z,40.53
2023-04-10T11:11:01.620Z,40.33
2023-04-10T11:16:05.517Z,40.20
2023-04-10T11:21:12.452Z,39.98
2023-04-10T11:26:14.119Z,41.30
2023-04-10T11:31:18.481Z,40.77
2023-04-10T11:36:20.516Z,39.67
2023-04-10T11:41:28.471Z,40.35
2023-04-10T11:46:31.037Z,38.65
2023-04-10T11:51:33.819Z,38.62
2023-04-10T11:56:36.647Z,37.53
2023-04-10T12:01:42.491Z,39.72
2023-04-10T12:06:45.788Z,37.13
2023-04-10T12:12:07.738Z,35.51
2023-04-10T12:17:11.598Z,36.65
2023-04-10T12:22:13.497Z,36.85
2023-04-10T12:27:28.681Z,35.18
2023-04-10T12:32:30.775Z,34.62
2023-04-10T12:37:54.593Z,34.84
2023-04-10T12:42:56.347Z,34.27
2023-04-10T12:47:57.986Z,35.12
2023-04-10T12:53:09.105Z,34.66
2023-04-10T12:58:20.605Z,32.95
2023-04-10T13:03:22.503Z,32.57
2023-04-10T13:08:24.368Z,31.53
2023-04-10T13:13:26.005Z,32.90
2023-04-10T13:18:27.727Z,34.38
2023-04-10T13:23:29.450Z,35.42
2023-04-10T13:28:31.184Z,33.87
2023-04-10T13:33:32.895Z,32.90
2023-04-10T13:38:34.520Z,34.20
2023-04-10T13:43:36.797Z,34.14
2023-04-10T13:48:41.371Z,33.36
2023-04-10T13:53:43.229Z,34.89
2023-04-10T13:58:46.330Z,34.07
2023-04-10T14:03:48.293Z,35.60
2023-04-10T14:08:50.100Z,35.75
2023-04-10T14:13:51.799Z,36.91
2023-04-10T14:18:54.381Z,35.93
2023-04-10T14:23:56.221Z,35.42
2023-04-10T14:28:57.825Z,34.93
2023-04-10T14:34:02.441Z,34.21
2023-04-10T14:39:04.221Z,34.80
2023-04-10T14:44:05.961Z,33.42
2023-04-10T14:49:07.629Z,35.34
2023-04-10T14:54:09.326Z,34.54
2023-04-10T14:59:11.565Z,34.47
2023-04-10T15:04:16.118Z,34.72
2023-04-10T15:09:20.730Z,35.35
2023-04-10T15:14:23.726Z,36.14
2023-04-10T15:19:26.082Z,36.45
2023-04-10T15:24:29.133Z,36.26
2023-04-10T15:29:38.478Z,36.33
2023-04-10T15:34:40.223Z,35.47
2023-04-10T15:39:42.181Z,36.52
2023-04-10T15:44:48.939Z,36.18
2023-04-10T15:49:50.940Z,36.05
2023-04-10T15:54:52.920Z,36.01
2023-04-10T15:59:56.640Z,35.97
2023-04-10T16:04:58.450Z,37.41
2023-04-10T16:10:00.705Z,36.87
2023-04-10T16:15:04.414Z,36.61
2023-04-10T16:20:07.159Z,37.34
2023-04-10T16:25:09.282Z,37.38
2023-04-10T16:30:11.860Z,36.64
2023-04-10T16:35:13.582Z,36.98
2023-04-10T16:40:15.338Z,37.37
2023-04-10T16:45:17.373Z,37.99
2023-04-10T16:50:19.287Z,38.03
2023-04-10T16:55:21.082Z,37.88
2023-04-10T17:00:22.786Z,38.43
2023-04-10T17:05:24.530Z,37.98
2023-04-10T17:10:27.691Z,38.85
2023-04-10T17:15:29.436Z,39.34
2023-04-10T17:20:36.134Z,38.87
2023-04-10T17:25:44.908Z,39.46
2023-04-10T17:30:48.472Z,40.42
2023-04-10T17:35:52.092Z,40.70
2023-04-10T17:40:53.936Z,41.25
2023-04-10T17:45:55.760Z,41.39
2023-04-10T17:50:58.030Z,41.49
2023-04-10T17:56:00.200Z,42.19
2023-04-10T18:01:02.051Z,42.38
2023-04-10T18:06:04.332Z,43.00
2023-04-10T18:11:06.241Z,43.20
2023-04-10T18:16:08.683Z,43.73
2023-04-10T18:21:13.789Z,44.11
2023-04-10T18:26:15.595Z,44.06
2023-04-10T18:31:19.002Z,44.75
2023-04-10T18:36:21.548Z,44.71
2023-04-10T18:41:23.508Z,45.38
2023-04-10T18:46:28.019Z,44.66
2023-04-10T18:51:29.842Z,45.26
2023-04-10T18:56:32.208Z,45.29
2023-04-10T19:01:34.066Z,45.79
2023-04-10T19:06:38.012Z,46.09
2023-04-10T19:11:40.346Z,46.04
2023-04-10T19:16:41.991Z,46.83
2023-04-10T19:21:43.786Z,47.08
2023-04-10T19:26:45.529Z,47.79
2023-04-10T19:31:47.275Z,48.63
2023-04-10T19:36:48.961Z,48.94
2023-04-10T19:41:50.673Z,49.61
2023-04-10T19:46:52.443Z,50.27
2023-04-10T19:51:54.305Z,50.25
2023-04-10T19:56:59.296Z,51.10
2023-04-10T20:02:01.069Z,50.84
2023-04-10T20:07:02.855Z,51.61
2023-04-10T20:12:04.880Z,51.62
2023-04-10T20:17:06.625Z,52.53
2023-04-10T20:22:08.965Z,53.65
2023-04-10T20:27:10.691Z,54.63
2023-04-10T20:32:12.304Z,55.11
2023-04-10T20:37:18.619Z,55.16
2023-04-10T20:42:20.256Z,55.38
2023-04-10T20:47:21.916Z,55.45
2023-04-10T20:52:23.546Z,56.25
2023-04-10T20:57:25.409Z,56.71
2023-04-10T21:02:27.223Z,57.34
2023-04-10T21:07:29.000Z,58.54
2023-04-10T21:12:31.231Z,58.36
2023-04-10T21:17:33.057Z,58.50
2023-04-10T21:22:34.775Z,59.31
2023-04-10T21:27:36.583Z,59.89
2023-04-10T21:32:38.404Z,60.42
2023-04-10T21:37:40.234Z,60.93
2023-04-10T21:42:41.897Z,61.10
2023-04-10T21:47:43.698Z,60.33
2023-04-10T21:52:45.455Z,59.91
2023-04-10T21:57:47.141Z,61.37
2023-04-10T22:02:52.698Z,62.22
2023-04-10T22:07:55.197Z,62.44
2023-04-10T22:12:56.850Z,62.61
2023-04-10T22:17:58.544Z,63.73
2023-04-10T22:23:00.167Z,64.21
2023-04-10T22:28:01.922Z,64.89
2023-04-10T22:33:03.688Z,65.87
2023-04-10T22:38:05.526Z,66.82
2023-04-10T22:43:07.189Z,67.34
2023-04-10T22:48:08.864Z,68.57
2023-04-10T22:53:11.976Z,69.84
2023-04-10T22:58:13.758Z,70.46
2023-04-10T23:03:15.459Z,70.34
2023-04-10T23:08:17.466Z,68.05
2023-04-10T23:13:19.118Z,66.81
2023-04-10T23:18:21.110Z,65.92
2023-04-10T23:23:22.857Z,62.95
2023-04-10T23:28:25.409Z,61.32
2023-04-10T23:33:27.174Z,60.88
2023-04-10T23:38:28.963Z,60.56
2023-04-10T23:43:30.686Z,59.60
2023-04-10T23:48:32.327Z,58.20
2023-04-10T23:53:34.717Z,58.46
2023-04-10T23:58:37.527Z,55.85
